Time;durP1;ratioP1;P1;durP2;ratioP2;P2;SDS_P1;SDS_P2;PMS_P1;PMS_P2;Temp;Humidity;BMP_temperature;BMP_pressure;BME280_temperature;BME280_humidity;BME280_pressure;Samples;Min_cycle;Max_cycle;Signal;HPM_P1;HPM_P2
2023/12/10 00:00:13;;;;;;;3.20;1.60;;;;;;;6.18;100.00;98841.03;5067789;28;20212;-79
2023/12/10 00:02:40;;;;;;;2.17;1.30;;;;;;;6.24;100.00;98844.06;5073100;28;20399;-77
2023/12/10 00:05:11;;;;;;;5.63;1.70;;;;;;;6.24;100.00;98846.72;5073357;28;20221;-78
2023/12/10 00:07:38;;;;;;;1.93;1.40;;;;;;;6.31;100.00;98855.00;5079130;28;20204;-77
2023/12/10 00:10:05;;;;;;;3.13;1.90;;;;;;;6.33;100.00;98845.16;5059912;28;20212;-81
2023/12/10 00:12:33;;;;;;;2.90;1.57;;;;;;;6.36;100.00;98842.31;5070139;28;20208;-79
2023/12/10 00:15:02;;;;;;;4.50;2.13;;;;;;;6.40;100.00;98846.41;5060787;28;20217;-81
2023/12/10 00:17:48;;;;;;;7.70;2.27;;;;;;;6.45;100.00;98854.81;5060606;28;20296;-79
2023/12/10 00:20:16;;;;;;;5.73;2.40;;;;;;;6.51;100.00;98845.59;5059311;28;20196;-80
2023/12/10 00:22:44;;;;;;;3.83;2.60;;;;;;;6.54;100.00;98856.78;5068236;28;20549;-80
2023/12/10 00:25:11;;;;;;;7.10;2.90;;;;;;;6.58;100.00;98854.75;5061302;28;20295;-79
2023/12/10 00:27:37;;;;;;;7.80;3.03;;;;;;;6.65;100.00;98848.03;5061004;28;20197;-75
2023/12/10 00:30:05;;;;;;;6.10;3.00;;;;;;;6.65;100.00;98861.25;5066969;28;20251;-78
2023/12/10 00:32:33;;;;;;;8.33;2.87;;;;;;;6.71;100.00;98867.91;5065423;28;20707;-79
2023/12/10 00:34:59;;;;;;;13.13;3.60;;;;;;;6.72;100.00;98861.66;5062702;28;20312;-78
2023/12/10 00:37:27;;;;;;;5.93;2.63;;;;;;;6.77;100.00;98855.06;5064126;28;20300;-78
2023/12/10 00:39:55;;;;;;;8.43;3.30;;;;;;;6.82;100.00;98862.63;5072057;28;20288;-78
2023/12/10 00:42:22;;;;;;;9.47;4.10;;;;;;;6.84;100.00;98866.84;5065832;28;20235;-79
2023/12/10 00:44:50;;;;;;;8.97;4.00;;;;;;;6.90;100.00;98873.47;5060778;28;20236;-79
2023/12/10 00:47:22;;;;;;;12.00;4.30;;;;;;;6.90;100.00;98890.19;5065693;28;20648;-79
2023/12/10 00:49:49;;;;;;;11.93;4.67;;;;;;;6.95;100.00;98884.56;5071324;28;20558;-79
2023/12/10 00:52:16;;;;;;;12.00;4.80;;;;;;;7.01;100.00;98888.53;5068601;28;20294;-81
2023/12/10 00:54:44;;;;;;;12.93;5.33;;;;;;;7.06;100.00;98894.31;5069047;28;20206;-79
2023/12/10 00:57:12;;;;;;;15.87;4.97;;;;;;;7.06;100.00;98881.09;5062345;28;20216;-81
2023/12/10 00:59:40;;;;;;;14.27;4.73;;;;;;;7.09;100.00;98891.44;5075048;28;20771;-80
2023/12/10 01:02:08;;;;;;;13.50;4.87;;;;;;;7.11;100.00;98900.09;5069076;28;20198;-79
2023/12/10 01:04:36;;;;;;;15.67;4.87;;;;;;;7.14;100.00;98913.97;5062821;28;20657;-80
2023/12/10 01:07:03;;;;;;;11.27;4.40;;;;;;;7.21;100.00;98917.81;5053994;28;20221;-79
2023/12/10 01:09:30;;;;;;;15.27;4.73;;;;;;;7.23;100.00;98923.81;5069097;28;20220;-79
2023/12/10 01:11:57;;;;;;;16.47;5.27;;;;;;;7.24;100.00;98937.91;5064246;28;20209;-79
2023/12/10 01:14:24;;;;;;;17.23;4.73;;;;;;;7.28;100.00;98944.66;5068310;28;20697;-80
2023/12/10 01:16:51;;;;;;;16.63;6.13;;;;;;;7.31;100.00;98947.94;5062975;28;20259;-79
2023/12/10 01:19:17;;;;;;;14.17;4.30;;;;;;;7.34;100.00;98954.81;5066021;28;20203;-80
2023/12/10 01:21:46;;;;;;;11.47;4.20;;;;;;;7.39;100.00;98962.38;5082028;28;20296;-78
2023/12/10 01:24:16;;;;;;;14.60;4.40;;;;;;;7.41;100.00;98961.28;5073093;28;20209;-80
2023/12/10 01:26:45;;;;;;;11.90;4.10;;;;;;;7.40;100.00;98964.91;5080983;28;20236;-80
2023/12/10 01:29:33;;;;;;;18.77;5.43;;;;;;;7.42;100.00;98973.56;5069596;28;20208;-80
2023/12/10 01:32:00;;;;;;;13.37;3.93;;;;;;;7.46;100.00;98990.91;5060526;28;20213;-81
2023/12/10 01:34:27;;;;;;;14.93;4.37;;;;;;;7.46;100.00;98988.28;5064129;28;20287;-78
2023/12/10 01:36:55;;;;;;;10.57;3.87;;;;;;;7.52;100.00;99003.72;5070123;28;20209;-78
2023/12/10 01:39:21;;;;;;;12.90;3.60;;;;;;;7.58;100.00;99003.22;5071793;28;20293;-81
2023/12/10 01:41:48;;;;;;;12.53;3.53;;;;;;;7.61;100.00;99018.03;5068314;28;20221;-79
2023/12/10 01:44:16;;;;;;;17.00;3.60;;;;;;;7.59;100.00;99026.09;5073407;28;20201;-80
2023/12/10 01:46:45;;;;;;;19.13;3.87;;;;;;;7.62;100.00;99025.03;5071030;28;20287;-81
2023/12/10 01:49:15;;;;;;;16.33;4.70;;;;;;;7.60;100.00;99026.94;5070171;28;20201;-79
2023/12/10 01:51:42;;;;;;;17.77;4.90;;;;;;;7.61;100.00;99032.13;5072254;28;20229;-78
2023/12/10 01:54:14;;;;;;;16.43;3.90;;;;;;;7.61;100.00;99037.44;5078730;28;20214;-81
2023/12/10 01:56:42;;;;;;;14.33;3.67;;;;;;;7.59;100.00;99038.50;5074511;28;20225;-80
2023/12/10 01:59:16;;;;;;;20.10;4.57;;;;;;;7.58;100.00;99042.94;5070145;28;20228;-79
2023/12/10 02:01:47;;;;;;;12.77;3.03;;;;;;;7.58;100.00;99048.25;5076611;28;20212;-81
2023/12/10 02:04:16;;;;;;;20.23;4.17;;;;;;;7.58;100.00;99061.50;5082199;28;20232;-80
2023/12/10 02:06:54;;;;;;;16.10;3.37;;;;;;;7.58;100.00;99064.16;5067568;28;20237;-79
2023/12/10 02:09:21;;;;;;;16.33;3.70;;;;;;;7.59;100.00;99059.69;5072296;28;20203;-80
2023/12/10 02:11:47;;;;;;;13.67;3.90;;;;;;;7.57;100.00;99062.47;5074929;28;20295;-79
2023/12/10 02:14:15;;;;;;;17.37;3.77;;;;;;;7.55;100.00;99056.44;5064471;28;20213;-80
2023/12/10 02:16:42;;;;;;;13.00;3.10;;;;;;;7.56;100.00;99060.75;5071148;28;20725;-79
2023/12/10 02:19:12;;;;;;;15.93;4.10;;;;;;;7.59;100.00;99060.53;5063802;28;20199;-80
2023/12/10 02:22:31;;;;;;;;;;;;;;;;;;;;;
2023/12/10 02:25:12;;;;;;;14.30;3.50;;;;;;;7.60;100.00;99070.19;5063292;28;20229;-79
2023/12/10 02:27:41;;;;;;;17.77;4.60;;;;;;;7.63;100.00;99079.69;5073320;28;20310;-82
2023/12/10 02:30:09;;;;;;;18.90;4.47;;;;;;;7.65;100.00;99080.44;5075987;28;20577;-80
2023/12/10 02:32:38;;;;;;;22.07;4.03;;;;;;;7.65;100.00;99091.03;5074281;28;20661;-81
2023/12/10 02:35:11;;;;;;;19.10;4.00;;;;;;;7.62;100.00;99086.81;5068597;28;20226;-80
2023/12/10 02:37:48;;;;;;;18.87;4.20;;;;;;;7.66;100.00;99092.72;5068973;28;20217;-80
2023/12/10 02:40:30;;;;;;;22.20;4.67;;;;;;;7.66;100.00;99098.03;5061891;28;20237;-80
2023/12/10 02:42:58;;;;;;;20.87;4.73;;;;;;;7.70;100.00;99102.13;5070298;28;20277;-81
2023/12/10 02:45:25;;;;;;;23.13;3.73;;;;;;;7.70;100.00;99096.00;5073582;28;20312;-80
2023/12/10 02:47:52;;;;;;;18.23;4.73;;;;;;;7.70;100.00;99094.19;5071314;28;20323;-80
2023/12/10 02:50:18;;;;;;;19.33;4.23;;;;;;;7.72;100.00;99100.19;5080306;28;20288;-81
2023/12/10 02:52:45;;;;;;;24.33;4.97;;;;;;;7.71;100.00;99093.19;5068851;28;20248;-80
2023/12/10 02:55:12;;;;;;;18.40;4.80;;;;;;;7.75;100.00;99102.59;5060974;28;20239;-80
2023/12/10 02:57:42;;;;;;;17.00;4.30;;;;;;;7.73;100.00;99111.63;5069104;28;20299;-82
2023/12/10 03:00:24;;;;;;;15.23;4.87;;;;;;;7.78;100.00;99122.72;5063663;28;20688;-78
2023/12/10 03:02:52;;;;;;;24.97;4.63;;;;;;;7.82;100.00;99118.91;5062507;28;20666;-81
2023/12/10 03:05:28;;;;;;;25.37;5.33;;;;;;;7.79;100.00;99135.03;5065175;28;20237;-80
2023/12/10 03:07:59;;;;;;;15.97;5.07;;;;;;;7.78;100.00;99136.81;5062216;28;20328;-78
2023/12/10 03:10:27;;;;;;;19.27;4.23;;;;;;;7.78;100.00;99139.47;5057481;28;20209;-78
2023/12/10 03:12:55;;;;;;;16.23;4.20;;;;;;;7.81;99.96;99133.09;5062139;28;20196;-81
2023/12/10 03:15:25;;;;;;;16.83;5.10;;;;;;;7.86;99.58;99146.88;5064377;28;20249;-79
2023/12/10 03:18:07;;;;;;;;;;;;;;;;;;;;;
2023/12/10 03:34:03;;;;;;;22.37;4.33;;;;;;;7.90;99.18;99132.38;4790784;29;20787;-80
2023/12/10 03:37:26;;;;;;;;;;;;;;;;;;;;;
2023/12/10 03:39:53;;;;;;;20.83;4.57;;;;;;;7.96;97.80;99138.06;4979847;28;20206;-82
2023/12/10 03:42:19;;;;;;;24.80;5.27;;;;;;;7.96;98.34;99139.88;5056495;28;20281;-80
2023/12/10 03:44:48;;;;;;;16.87;5.17;;;;;;;7.98;98.27;99156.53;5071960;28;20228;-81
2023/12/10 03:47:20;;;;;;;17.13;4.80;;;;;;;7.97;98.16;99157.47;5066837;28;20264;-79
2023/12/10 03:52:53;;;;;;;19.30;4.50;;;;;;;8.06;97.41;99140.84;4978982;28;20210;-81
2023/12/10 03:55:19;;;;;;;23.63;4.87;;;;;;;8.06;97.21;99153.28;5060118;28;20224;-81
2023/12/10 03:57:48;;;;;;;19.53;4.10;;;;;;;8.05;97.41;99165.72;5063981;28;20197;-82
2023/12/10 04:00:15;;;;;;;21.23;5.20;;;;;;;8.04;98.63;99157.88;5071011;28;20702;-81
2023/12/10 04:02:42;;;;;;;19.47;4.60;;;;;;;8.06;98.23;99166.56;5062271;28;20215;-79
2023/12/10 04:05:11;;;;;;;15.77;4.60;;;;;;;8.09;98.47;99168.94;5060245;28;20587;-83
2023/12/10 04:07:38;;;;;;;18.60;4.03;;;;;;;8.05;98.06;99171.00;5064002;28;20308;-81
2023/12/10 04:10:06;;;;;;;13.67;3.33;;;;;;;8.05;97.94;99178.13;5065300;28;20197;-82
2023/12/10 04:12:33;;;;;;;18.07;4.57;;;;;;;8.06;96.90;99171.84;5066019;28;20202;-81
2023/12/10 04:14:59;;;;;;;21.77;4.57;;;;;;;8.07;97.51;99182.31;5071665;28;20303;-81
2023/12/10 04:17:26;;;;;;;18.40;4.77;;;;;;;8.07;97.46;99182.31;5056947;28;20201;-79
2023/12/10 04:19:52;;;;;;;12.93;3.97;;;;;;;8.05;98.45;99186.06;5056477;28;20295;-80
2023/12/10 04:22:20;;;;;;;18.23;4.73;;;;;;;8.03;99.36;99180.88;5068792;28;20265;-79
2023/12/10 04:24:47;;;;;;;10.27;2.90;;;;;;;8.06;99.79;99179.81;5056616;28;20211;-81
2023/12/10 04:27:14;;;;;;;19.03;4.17;;;;;;;8.07;98.59;99171.72;5064089;28;20239;-80
2023/12/10 04:29:40;;;;;;;11.40;3.43;;;;;;;8.02;98.58;99187.16;5057654;28;20217;-80
2023/12/10 04:32:07;;;;;;;16.70;4.60;;;;;;;8.03;99.84;99180.88;5066977;28;20204;-78
2023/12/10 04:34:34;;;;;;;18.83;4.80;;;;;;;8.05;99.59;99188.72;5077607;28;20203;-81
2023/12/10 04:37:01;;;;;;;16.20;4.20;;;;;;;8.02;99.71;99185.34;5051538;28;20205;-80
2023/12/10 04:39:28;;;;;;;16.03;3.83;;;;;;;8.01;100.00;99180.16;5053312;28;20198;-80
2023/12/10 04:41:55;;;;;;;15.37;3.90;;;;;;;7.99;99.91;99174.13;5066962;28;20296;-80
2023/12/10 04:44:22;;;;;;;15.03;4.70;;;;;;;7.97;99.71;99176.03;5076812;28;20301;-79
2023/12/10 04:46:48;;;;;;;12.97;3.87;;;;;;;7.98;99.41;99181.22;5059551;28;20233;-80
2023/12/10 04:49:15;;;;;;;14.77;3.07;;;;;;;7.95;99.43;99183.25;5072459;28;20205;-81
2023/12/10 04:51:41;;;;;;;11.80;3.43;;;;;;;7.96;99.45;99188.44;5061559;28;20261;-80
2023/12/10 04:54:08;;;;;;;12.77;3.20;;;;;;;7.95;99.80;99186.75;5068783;28;20288;-79
2023/12/10 04:56:36;;;;;;;11.67;3.17;;;;;;;7.93;100.00;99175.41;5072986;28;20308;-80
2023/12/10 04:59:02;;;;;;;14.93;3.50;;;;;;;7.93;100.00;99163.97;5064308;28;20296;-80
2023/12/10 05:01:29;;;;;;;18.40;4.60;;;;;;;7.93;100.00;99186.03;5070758;28;20280;-79
2023/12/10 05:03:55;;;;;;;10.77;2.77;;;;;;;7.90;100.00;99170.34;5078523;28;20208;-80
2023/12/10 05:06:22;;;;;;;12.53;2.90;;;;;;;7.91;100.00;99180.00;5066805;28;20275;-80
2023/12/10 05:08:49;;;;;;;9.87;3.00;;;;;;;7.91;100.00;99172.03;5058159;28;20319;-80
2023/12/10 05:11:16;;;;;;;9.03;2.57;;;;;;;7.90;100.00;99178.28;5058681;28;20197;-80
2023/12/10 05:13:44;;;;;;;11.20;2.87;;;;;;;7.88;100.00;99174.91;5076200;28;20637;-79
2023/12/10 05:16:11;;;;;;;11.00;3.20;;;;;;;7.88;100.00;99177.56;5065997;28;20249;-80
2023/12/10 05:18:37;;;;;;;9.90;2.50;;;;;;;7.90;100.00;99174.81;5068580;28;20258;-80
2023/12/10 05:21:04;;;;;;;14.93;3.53;;;;;;;7.90;100.00;99182.75;5073010;28;20204;-79
2023/12/10 05:23:30;;;;;;;19.70;4.70;;;;;;;7.86;99.75;99176.88;5072683;28;20660;-82
2023/12/10 05:25:57;;;;;;;10.57;3.20;;;;;;;7.83;99.83;99171.78;5066390;28;20894;-80
2023/12/10 05:28:23;;;;;;;8.63;2.63;;;;;;;7.85;99.60;99169.88;5064862;28;20597;-80
2023/12/10 05:30:51;;;;;;;12.10;3.43;;;;;;;7.85;98.70;99172.53;5059414;28;20653;-79
2023/12/10 05:33:18;;;;;;;9.37;2.80;;;;;;;7.89;98.20;99171.31;5064687;28;20211;-81
2023/12/10 05:35:44;;;;;;;17.23;4.07;;;;;;;7.91;97.45;99165.88;5074343;28;20661;-77
2023/12/10 05:38:11;;;;;;;12.17;2.10;;;;;;;7.91;96.79;99173.84;5076806;28;20208;-80
2023/12/10 05:40:38;;;;;;;12.93;4.20;;;;;;;7.90;96.77;99169.50;5064456;28;20328;-79
2023/12/10 05:43:04;;;;;;;12.77;2.90;;;;;;;7.92;96.39;99186.13;5067986;28;20292;-80
2023/12/10 05:45:31;;;;;;;7.70;3.47;;;;;;;7.93;96.06;99177.22;5071136;28;20253;-80
2023/12/10 05:47:59;;;;;;;8.80;2.87;;;;;;;7.95;96.89;99167.34;5070959;28;20230;-80
2023/12/10 05:50:26;;;;;;;8.93;2.83;;;;;;;7.95;96.27;99191.22;5061505;28;20205;-80
2023/12/10 05:52:53;;;;;;;7.73;2.80;;;;;;;7.96;96.38;99184.94;5066267;28;20607;-79
2023/12/10 05:55:19;;;;;;;12.00;3.00;;;;;;;7.93;96.28;99180.72;5068124;28;20308;-81
2023/12/10 05:57:46;;;;;;;10.00;2.20;;;;;;;7.96;96.82;99190.25;5062562;28;20198;-80
2023/12/10 06:00:14;;;;;;;8.33;2.00;;;;;;;7.93;96.83;99190.47;5076267;28;20232;-79
2023/12/10 06:02:40;;;;;;;4.20;1.67;;;;;;;7.89;96.23;99179.25;5058894;28;20285;-80
2023/12/10 06:05:08;;;;;;;7.43;1.77;;;;;;;7.88;95.96;99176.75;5067532;28;20220;-80
2023/12/10 06:07:35;;;;;;;5.83;2.00;;;;;;;7.85;95.14;99182.28;5068204;28;20311;-80
2023/12/10 06:10:02;;;;;;;7.47;1.80;;;;;;;7.80;95.30;99184.41;5077415;28;20214;-80
2023/12/10 06:12:29;;;;;;;6.33;1.60;;;;;;;7.79;95.34;99193.34;5066000;28;20229;-81
2023/12/10 06:14:56;;;;;;;6.83;1.83;;;;;;;7.76;96.86;99206.81;5072113;28;20231;-80
2023/12/10 06:17:23;;;;;;;6.97;1.60;;;;;;;7.72;96.75;99195.59;5067752;28;20893;-80
2023/12/10 06:19:49;;;;;;;6.30;1.50;;;;;;;7.72;97.23;99192.09;5072695;28;20293;-80
2023/12/10 06:22:17;;;;;;;8.60;2.53;;;;;;;7.70;97.85;99192.22;5058126;28;20212;-80
2023/12/10 06:24:44;;;;;;;6.97;1.60;;;;;;;7.70;98.00;99200.19;5066119;28;20205;-80
2023/12/10 06:27:10;;;;;;;5.13;1.90;;;;;;;7.68;98.14;99209.19;5063878;28;20197;-80
2023/12/10 06:29:37;;;;;;;9.80;2.13;;;;;;;7.62;97.40;99229.88;5069311;28;20201;-81
2023/12/10 06:32:05;;;;;;;5.77;1.40;;;;;;;7.60;97.86;99223.84;5068210;28;20213;-80
2023/12/10 06:34:31;;;;;;;7.27;2.43;;;;;;;7.57;98.51;99236.47;5064149;28;20209;-79
2023/12/10 06:36:58;;;;;;;4.80;1.50;;;;;;;7.53;98.40;99227.88;5076680;28;20336;-81
2023/12/10 06:39:26;;;;;;;5.30;1.53;;;;;;;7.54;98.06;99229.59;5080636;28;20238;-79
2023/12/10 06:41:52;;;;;;;3.80;1.40;;;;;;;7.51;98.75;99229.00;5067146;28;20212;-79
2023/12/10 06:44:21;;;;;;;3.13;1.30;;;;;;;7.50;98.12;99236.09;5067486;28;20201;-81
2023/12/10 06:46:48;;;;;;;5.73;1.40;;;;;;;7.46;98.63;99250.50;5072664;28;20781;-79
2023/12/10 06:49:14;;;;;;;4.93;1.43;;;;;;;7.46;99.44;99247.88;5069022;28;20752;-80
2023/12/10 06:51:42;;;;;;;6.83;1.00;;;;;;;7.46;98.74;99254.97;5063800;28;20217;-80
2023/12/10 06:54:10;;;;;;;3.13;1.10;;;;;;;7.40;99.77;99256.25;5069670;28;20200;-80
2023/12/10 06:56:39;;;;;;;5.63;1.43;;;;;;;7.38;99.92;99247.56;5060722;28;20270;-81
2023/12/10 06:59:06;;;;;;;2.90;0.60;;;;;;;7.37;100.00;99248.50;5069159;28;20696;-81
2023/12/10 07:01:33;;;;;;;3.93;1.03;;;;;;;7.36;100.00;99264.50;5055796;28;20204;-79
2023/12/10 07:04:00;;;;;;;4.57;1.10;;;;;;;7.35;100.00;99258.38;5071866;28;20200;-79
2023/12/10 07:06:26;;;;;;;4.47;1.17;;;;;;;7.34;100.00;99253.22;5054848;28;20217;-79
2023/12/10 07:08:53;;;;;;;3.33;0.93;;;;;;;7.30;100.00;99264.03;5065958;28;20224;-78
2023/12/10 07:11:19;;;;;;;5.10;1.20;;;;;;;7.29;100.00;99258.84;5057777;28;20212;-79
2023/12/10 07:13:48;;;;;;;8.37;1.33;;;;;;;7.27;100.00;99268.69;5061427;28;20213;-80
2023/12/10 07:16:15;;;;;;;5.43;1.30;;;;;;;7.24;100.00;99261.81;5066568;28;20772;-79
2023/12/10 07:18:41;;;;;;;4.53;1.27;;;;;;;7.26;100.00;99265.19;5056926;28;20715;-79
2023/12/10 07:21:08;;;;;;;2.70;1.20;;;;;;;7.24;100.00;99276.84;5062198;28;20220;-80
2023/12/10 07:23:36;;;;;;;6.83;1.57;;;;;;;7.19;100.00;99287.75;5061727;28;20215;-79
2023/12/10 07:26:02;;;;;;;4.20;1.33;;;;;;;7.19;100.00;99286.91;5064567;28;20240;-80
2023/12/10 07:28:29;;;;;;;3.13;1.50;;;;;;;7.17;100.00;99281.72;5061428;28;20321;-78
2023/12/10 07:30:57;;;;;;;4.30;1.13;;;;;;;7.12;100.00;99285.66;5069832;28;20213;-80
2023/12/10 07:33:23;;;;;;;6.13;1.60;;;;;;;7.12;100.00;99278.56;5072218;28;20368;-80
2023/12/10 07:35:51;;;;;;;4.77;1.37;;;;;;;7.12;100.00;99296.25;5055788;28;20251;-81
2023/12/10 07:38:18;;;;;;;6.33;1.67;;;;;;;7.14;100.00;99297.00;5070037;28;21103;-79
2023/12/10 07:40:44;;;;;;;3.67;1.10;;;;;;;7.11;100.00;99303.34;5060654;28;21102;-78
2023/12/10 07:43:11;;;;;;;4.37;1.10;;;;;;;7.09;100.00;99299.13;5062102;28;20717;-79
2023/12/10 07:45:37;;;;;;;5.23;1.13;;;;;;;7.09;100.00;99301.75;5059802;28;20217;-80
2023/12/10 07:48:05;;;;;;;3.90;1.47;;;;;;;7.06;100.00;99302.81;5067673;28;20316;-79
2023/12/10 07:50:32;;;;;;;3.77;1.30;;;;;;;7.09;100.00;99309.69;5067940;28;20254;-79
2023/12/10 07:52:59;;;;;;;6.93;1.47;;;;;;;7.09;100.00;99304.41;5064615;28;20206;-79
2023/12/10 07:55:25;;;;;;;2.73;0.90;;;;;;;7.10;100.00;99300.81;5066008;28;20220;-79
2023/12/10 07:57:53;;;;;;;2.23;1.10;;;;;;;7.13;100.00;99309.38;5065542;28;20203;-79
2023/12/10 08:00:20;;;;;;;3.00;1.27;;;;;;;7.13;100.00;99313.84;5072209;28;20253;-79
2023/12/10 08:02:46;;;;;;;5.40;1.57;;;;;;;7.14;100.00;99304.94;5056056;28;20209;-78
2023/12/10 08:05:15;;;;;;;1.37;0.90;;;;;;;7.14;100.00;99318.19;5060097;28;20216;-79
2023/12/10 08:07:41;;;;;;;3.07;1.33;;;;;;;7.13;100.00;99317.34;5054645;28;20213;-80
2023/12/10 08:10:08;;;;;;;7.10;1.37;;;;;;;7.12;100.00;99328.03;5069283;28;20217;-80
2023/12/10 08:12:35;;;;;;;4.10;1.40;;;;;;;7.10;100.00;99322.00;5053829;28;20586;-79
2023/12/10 08:15:01;;;;;;;3.00;2.00;;;;;;;7.12;100.00;99330.69;5059176;28;20607;-81
2023/12/10 08:17:28;;;;;;;5.17;1.60;;;;;;;7.14;100.00;99334.06;5058048;28;20341;-79
2023/12/10 08:19:55;;;;;;;4.93;1.10;;;;;;;7.17;100.00;99329.38;5080585;28;20215;-83
2023/12/10 08:22:23;;;;;;;4.33;1.37;;;;;;;7.15;100.00;99317.22;5068330;28;20233;-81
2023/12/10 08:24:49;;;;;;;4.87;1.83;;;;;;;7.19;100.00;99332.75;5063990;28;20320;-80
2023/12/10 08:27:15;;;;;;;3.00;1.30;;;;;;;7.19;100.00;99337.22;5063678;28;20718;-80
2023/12/10 08:29:41;;;;;;;2.90;1.23;;;;;;;7.18;100.00;99336.38;5068634;28;20324;-80
2023/12/10 08:32:08;;;;;;;4.10;1.97;;;;;;;7.17;100.00;99334.66;5077116;28;20203;-79
2023/12/10 08:34:34;;;;;;;3.83;1.70;;;;;;;7.15;100.00;99336.59;5064326;28;20215;-82
2023/12/10 08:37:01;;;;;;;3.53;1.33;;;;;;;7.15;100.00;99326.03;5074542;28;20215;-79
2023/12/10 08:39:29;;;;;;;5.90;2.40;;;;;;;7.17;100.00;99339.97;5069108;28;20646;-82
2023/12/10 08:41:56;;;;;;;7.37;1.50;;;;;;;7.19;100.00;99345.16;5063653;28;20284;-79
2023/12/10 08:44:23;;;;;;;6.23;1.63;;;;;;;7.16;100.00;99348.03;5066155;28;20207;-82
2023/12/10 08:46:50;;;;;;;2.43;1.47;;;;;;;7.18;100.00;99343.47;5065995;28;20229;-79
2023/12/10 08:49:17;;;;;;;2.43;1.20;;;;;;;7.20;100.00;99341.56;5065565;28;20313;-80
2023/12/10 08:51:43;;;;;;;4.33;1.83;;;;;;;7.20;100.00;99346.84;5069706;28;20296;-80
2023/12/10 08:54:11;;;;;;;3.10;1.57;;;;;;;7.20;100.00;99342.41;5063488;28;20291;-80
2023/12/10 08:56:39;;;;;;;4.80;1.40;;;;;;;7.18;100.00;99348.75;5061739;28;20744;-79
2023/12/10 08:59:06;;;;;;;6.20;1.63;;;;;;;7.19;100.00;99346.00;5079001;28;20208;-80
2023/12/10 09:01:32;;;;;;;8.70;1.93;;;;;;;7.22;100.00;99359.03;5056116;28;20215;-79
2023/12/10 09:03:59;;;;;;;7.33;1.93;;;;;;;7.21;100.00;99340.59;5068114;28;20211;-80
2023/12/10 09:06:26;;;;;;;4.10;1.60;;;;;;;7.24;100.00;99356.28;5068545;28;20715;-79
2023/12/10 09:08:53;;;;;;;4.57;1.40;;;;;;;7.30;100.00;99358.50;5068311;28;20597;-79
2023/12/10 09:11:19;;;;;;;6.77;1.77;;;;;;;7.26;100.00;99360.53;5068075;28;20209;-80
2023/12/10 09:13:47;;;;;;;3.83;1.40;;;;;;;7.29;100.00;99375.34;5070954;28;20644;-79
2023/12/10 09:16:15;;;;;;;7.30;2.00;;;;;;;7.29;100.00;99376.19;5065399;28;20320;-79
2023/12/10 09:18:42;;;;;;;3.70;1.70;;;;;;;7.31;100.00;99376.94;5065458;28;20202;-81
2023/12/10 09:21:08;;;;;;;6.67;1.30;;;;;;;7.31;100.00;99368.16;5060283;28;20288;-79
2023/12/10 09:23:35;;;;;;;3.93;1.53;;;;;;;7.29;100.00;99378.00;5065475;28;20816;-78
2023/12/10 09:26:02;;;;;;;4.20;1.63;;;;;;;7.34;100.00;99382.97;5063153;28;20225;-79
2023/12/10 09:28:30;;;;;;;7.13;1.90;;;;;;;7.34;100.00;99388.28;5063640;28;20625;-80
2023/12/10 09:30:58;;;;;;;4.30;1.60;;;;;;;7.34;100.00;99383.84;5067623;28;20227;-78
2023/12/10 09:33:25;;;;;;;5.30;1.60;;;;;;;7.38;100.00;99382.63;5068905;28;20981;-79
2023/12/10 09:35:51;;;;;;;5.43;2.07;;;;;;;7.42;100.00;99376.19;5066975;28;20228;-80
2023/12/10 09:38:18;;;;;;;4.20;1.70;;;;;;;7.45;100.00;99389.22;5062294;28;20220;-79
2023/12/10 09:40:44;;;;;;;5.60;2.53;;;;;;;7.48;100.00;99386.34;5071869;28;20213;-79
2023/12/10 09:43:11;;;;;;;8.03;2.57;;;;;;;7.50;100.00;99379.16;5064098;28;20201;-80
2023/12/10 09:45:38;;;;;;;5.80;1.60;;;;;;;7.52;100.00;99409.03;5068251;28;20710;-80
2023/12/10 09:48:06;;;;;;;5.67;1.70;;;;;;;7.57;100.00;99400.72;5063171;28;20297;-79
2023/12/10 09:50:38;;;;;;;5.03;1.60;;;;;;;7.54;100.00;99412.38;5063533;28;20204;-81
2023/12/10 09:53:05;;;;;;;8.47;2.33;;;;;;;7.56;100.00;99397.22;5076314;28;20209;-82
2023/12/10 09:55:31;;;;;;;6.63;2.00;;;;;;;7.60;100.00;99409.31;5067236;28;20227;-81
2023/12/10 09:57:58;;;;;;;8.60;2.30;;;;;;;7.63;100.00;99405.59;5075161;28;20384;-81
2023/12/10 10:00:25;;;;;;;6.00;1.47;;;;;;;7.64;100.00;99424.06;5077653;28;20212;-81
2023/12/10 10:02:51;;;;;;;5.43;1.90;;;;;;;7.70;100.00;99425.44;5076385;28;20295;-81
2023/12/10 10:05:19;;;;;;;4.27;1.43;;;;;;;7.69;100.00;99418.44;5080936;28;20235;-81
2023/12/10 10:07:46;;;;;;;4.13;1.57;;;;;;;7.72;100.00;99420.84;5065938;28;20204;-81
2023/12/10 10:10:12;;;;;;;6.37;2.00;;;;;;;7.75;100.00;99433.03;5070500;28;20254;-81
2023/12/10 10:12:39;;;;;;;5.80;2.43;;;;;;;7.76;100.00;99430.28;5074325;28;20207;-80
2023/12/10 10:15:07;;;;;;;8.60;2.30;;;;;;;7.78;100.00;99419.56;5062595;28;20226;-81
2023/12/10 10:17:35;;;;;;;10.90;2.10;;;;;;;7.78;100.00;99433.66;5066571;28;20276;-81
2023/12/10 10:20:04;;;;;;;5.00;1.90;;;;;;;7.79;100.00;99445.13;5070833;28;20618;-81
2023/12/10 10:22:33;;;;;;;7.40;2.30;;;;;;;7.78;100.00;99456.66;5072463;28;20252;-82
2023/12/10 10:25:00;;;;;;;5.13;2.47;;;;;;;7.80;100.00;99446.81;5072803;28;20312;-81
2023/12/10 10:27:27;;;;;;;7.20;2.50;;;;;;;7.80;100.00;99446.81;5068027;28;20578;-82
2023/12/10 10:29:54;;;;;;;12.97;2.70;;;;;;;7.82;100.00;99455.50;5055484;28;20778;-81
2023/12/10 10:32:22;;;;;;;8.90;1.90;;;;;;;7.81;100.00;99445.84;5068777;28;20205;-82
2023/12/10 10:34:49;;;;;;;9.47;3.00;;;;;;;7.80;100.00;99460.91;5077169;28;20235;-81
2023/12/10 10:37:17;;;;;;;7.87;3.37;;;;;;;7.83;100.00;99449.25;5083663;28;20303;-81
2023/12/10 10:39:49;;;;;;;6.20;2.40;;;;;;;7.81;100.00;99445.84;5066863;28;20300;-80
2023/12/10 10:42:16;;;;;;;24.37;15.00;;;;;;;7.82;100.00;99444.91;5066967;28;20209;-82
2023/12/10 10:44:43;;;;;;;24.70;15.53;;;;;;;7.80;100.00;99455.59;5068463;28;20201;-81
2023/12/10 10:47:10;;;;;;;7.83;4.37;;;;;;;7.79;100.00;99459.22;5072125;28;20205;-82
2023/12/10 10:49:41;;;;;;;15.00;9.17;;;;;;;7.80;100.00;99460.06;5063073;28;20864;-81
2023/12/10 10:52:12;;;;;;;13.13;8.57;;;;;;;7.79;100.00;99461.88;5063771;28;20228;-78
2023/12/10 10:54:40;;;;;;;5.93;3.30;;;;;;;7.81;100.00;99462.59;5073776;28;20283;-80
2023/12/10 10:57:08;;;;;;;5.00;2.63;;;;;;;7.83;100.00;99462.50;5080547;28;20201;-79
2023/12/10 10:59:36;;;;;;;9.17;3.60;;;;;;;7.85;100.00;99472.03;5081438;28;20247;-80
2023/12/10 11:02:06;;;;;;;6.53;2.60;;;;;;;7.84;100.00;99480.94;5066774;28;20678;-81
2023/12/10 11:04:38;;;;;;;9.13;2.27;;;;;;;7.87;100.00;99471.94;5076359;28;20287;-81
2023/12/10 11:07:05;;;;;;;5.70;2.23;;;;;;;7.87;100.00;99475.44;5070809;28;20285;-81
2023/12/10 11:09:33;;;;;;;6.37;1.90;;;;;;;7.89;100.00;99484.09;5086318;28;20311;-80
2023/12/10 11:12:00;;;;;;;5.90;1.93;;;;;;;7.93;100.00;99482.09;5085196;28;20378;-81
2023/12/10 11:14:33;;;;;;;7.63;2.90;;;;;;;7.95;100.00;99482.81;5084181;28;20581;-80
2023/12/10 11:17:04;;;;;;;5.43;2.27;;;;;;;7.98;100.00;99485.25;5072702;28;20253;-79
2023/12/10 11:19:32;;;;;;;5.27;2.87;;;;;;;7.99;100.00;99510.81;5082264;28;20235;-80
2023/12/10 11:21:59;;;;;;;8.33;2.67;;;;;;;8.00;100.00;99507.22;5071626;28;20208;-80
2023/12/10 11:24:26;;;;;;;11.50;4.60;;;;;;;8.00;100.00;99515.19;5084628;28;20209;-80
2023/12/10 11:26:53;;;;;;;6.17;1.90;;;;;;;7.99;100.00;99514.31;5077520;28;20601;-83
2023/12/10 11:29:19;;;;;;;5.13;2.57;;;;;;;8.03;100.00;99512.31;5066387;28;20232;-81
2023/12/10 11:31:47;;;;;;;10.23;3.53;;;;;;;8.05;100.00;99528.97;5079906;28;20241;-82
2023/12/10 11:34:14;;;;;;;9.70;3.27;;;;;;;8.02;100.00;99515.91;5079678;28;20235;-82
2023/12/10 11:36:46;;;;;;;10.63;3.30;;;;;;;8.00;100.00;99525.78;5063960;28;20272;-80
2023/12/10 11:39:14;;;;;;;9.70;3.10;;;;;;;8.01;100.00;99514.22;5077317;28;20764;-82
2023/12/10 11:41:41;;;;;;;7.53;2.00;;;;;;;7.98;100.00;99523.22;5076449;28;20200;-83
2023/12/10 11:44:19;;;;;;;8.17;2.17;;;;;;;8.00;100.00;99537.22;5073767;28;20237;-82
2023/12/10 11:46:48;;;;;;;8.83;2.53;;;;;;;7.98;100.00;99511.78;5073855;28;20235;-83
2023/12/10 11:52:31;;;;;;;6.77;2.83;;;;;;;7.99;100.00;99532.88;4941572;29;20291;-81
2023/12/10 11:54:58;;;;;;;6.50;2.57;;;;;;;8.00;100.00;99544.34;5028833;28;20287;-82
2023/12/10 11:57:25;;;;;;;4.83;2.13;;;;;;;7.97;100.00;99534.78;5081259;28;20219;-80
2023/12/10 11:59:54;;;;;;;7.93;2.73;;;;;;;7.95;100.00;99547.31;5083938;28;20197;-80